Akhmat_kadyrov — UINU — position and weather

sailwx.info

Track history (hours):
 
Tides and Currents Weather Stations Pressure Air Temp Water Temp Dewpoint Dewpoint Depression Visibility Wind Speed Wind Dir Waves Ship Positions

Akhmat_kadyrov

Last reported at 2018-Feb-16 14:29 UTC. Time now 2018-Feb-24 02:40 UTC.
Position N 45°33' E 036°49'.

Length 139 m; draft 3 m.

Type: Cargo ship. MMSI: 273372000.

Date/timePositionNaut miles runAvg speedWind from/ knotsBaromVisibWave heightAir tempDewpointWater temp
2018-Feb-16 14:29N 45°33' E 036°49'3 7.1
2018-Feb-16 14:00N 45°30' E 036°45'3 6.9
2018-Feb-16 13:30N 45°27' E 036°43'4 7.2
2018-Feb-16 13:00N 45°24' E 036°41'3 6.4
2018-Feb-16 12:30N 45°21' E 036°39'3 6.6
2018-Feb-16 12:00N 45°20' E 036°35'4 7.0
2018-Feb-16 11:29N 45°18' E 036°30'3 6.6
2018-Feb-16 11:00N 45°15' E 036°28'2 4.8
2018-Feb-16 10:30N 45°13' E 036°29'2 4.0
2018-Feb-16 10:00N 45°11' E 036°31'0 0.3
2018-Feb-16 09:30N 45°11' E 036°31'0 0.0
2018-Feb-16 09:00N 45°11' E 036°31'0 0.0
2018-Feb-16 08:30N 45°11' E 036°31'0 0.0
2018-Feb-16 07:57N 45°11' E 036°31'0 0.0
2018-Feb-16 07:30N 45°11' E 036°31'0 0.0
2018-Feb-16 07:00N 45°11' E 036°31'0 0.0
2018-Feb-16 05:54N 45°11' E 036°31'0 0.0
2018-Feb-16 04:12N 45°11' E 036°31'0 0.0
2018-Feb-16 03:09N 45°11' E 036°31'0 0.0
2018-Feb-16 03:00N 45°11' E 036°31'0 0.0
2018-Feb-16 02:30N 45°11' E 036°31'0 0.1
2018-Feb-16 02:00N 45°11' E 036°31'0 0.0
2018-Feb-16 01:30N 45°11' E 036°31'0 0.0
2018-Feb-16 00:48N 45°11' E 036°31'0 0.0
2018-Feb-16 00:30N 45°11' E 036°31'0 0.1
2018-Feb-15 23:57N 45°11' E 036°31'1 2.5
2018-Feb-15 23:29N 45°10' E 036°31'3 7.2
2018-Feb-15 23:00N 45°07' E 036°30'  
2018-Feb-13 02:26N 44°38' E 029°21'3 6.9
2018-Feb-13 01:59N 44°36' E 029°17'3 6.8
2018-Feb-13 01:29N 44°33' E 029°15'3 6.7
2018-Feb-13 01:00N 44°30' E 029°13'4 7.2
2018-Feb-13 00:30N 44°27' E 029°11'4 7.3
2018-Feb-13 00:00N 44°24' E 029°08'4 7.2
2018-Feb-12 23:30N 44°21' E 029°06'3 7.0
2018-Feb-12 23:00N 44°18' E 029°03'3 6.9
2018-Feb-12 22:30N 44°15' E 029°01'4 7.0
2018-Feb-12 22:00N 44°12' E 028°59'4 7.1
2018-Feb-12 21:30N 44°08' E 028°57'3 7.0
2018-Feb-12 21:00N 44°05' E 028°54'3 7.0
2018-Feb-12 20:30N 44°02' E 028°52'3 6.8
2018-Feb-12 20:00N 43°59' E 028°50'3 5.3
2018-Feb-12 19:30N 44°00' E 028°46'4 8.3
2018-Feb-12 19:00N 44°04' E 028°43'4 7.2
2018-Feb-12 18:30N 44°07' E 028°41'2 4.4
2018-Feb-12 17:59N 44°08' E 028°39'0 0.0
2018-Feb-12 17:29N 44°08' E 028°39'0 0.0
2018-Feb-12 16:59N 44°08' E 028°39'0 0.0
2018-Feb-12 16:26N 44°08' E 028°39'0 0.0
2018-Feb-12 15:59N 44°08' E 028°39'0 0.0
2018-Feb-12 15:16N 44°09' E 028°39'0 0.0
2018-Feb-12 14:58N 44°08' E 028°39'0 0.0
2018-Feb-12 14:28N 44°08' E 028°39'0 0.0
2018-Feb-12 13:58N 44°08' E 028°39'0 0.0
2018-Feb-12 13:28N 44°08' E 028°39'0 0.0
2018-Feb-12 12:58N 44°08' E 028°39'0 0.0
2018-Feb-12 12:28N 44°08' E 028°39'0 0.0
2018-Feb-12 11:58N 44°08' E 028°39'0 0.0
2018-Feb-12 11:28N 44°08' E 028°39'0 0.0
2018-Feb-12 10:58N 44°08' E 028°39'0 0.0
2018-Feb-12 10:28N 44°08' E 028°39'0 0.0
2018-Feb-12 09:58N 44°08' E 028°39'0 0.0
2018-Feb-12 09:28N 44°08' E 028°39'0 0.0
2018-Feb-12 08:58N 44°08' E 028°39'0 0.0
2018-Feb-12 08:25N 44°08' E 028°39'0 0.0
2018-Feb-12 07:58N 44°08' E 028°39'0 0.0
2018-Feb-12 07:28N 44°08' E 028°39'0 0.0
2018-Feb-12 06:58N 44°08' E 028°39'0 0.0
2018-Feb-12 06:28N 44°08' E 028°39'0 0.0
2018-Feb-12 05:58N 44°08' E 028°39'0 0.0
2018-Feb-12 05:28N 44°08' E 028°39'0 0.0
2018-Feb-12 04:58N 44°08' E 028°39'1 1.4
2018-Feb-12 04:30N 44°09' E 028°40'3 6.0
2018-Feb-12 04:00N 44°06' E 028°42'2 4.0
2018-Feb-12 03:30N 44°05' E 028°45'2 4.1
2018-Feb-12 03:00N 44°05' E 028°47'3 5.0
2018-Feb-12 02:30N 44°05' E 028°51'3 5.2
2018-Feb-12 02:00N 44°06' E 028°54'3 6.8
2018-Feb-12 01:30N 44°09' E 028°57'3 6.7
2018-Feb-12 01:00N 44°12' E 028°59'3 6.8
2018-Feb-12 00:30N 44°15' E 029°01'3 6.9
2018-Feb-12 00:00N 44°18' E 029°03'3 6.9
2018-Feb-11 23:30N 44°21' E 029°06'3 6.9
2018-Feb-11 23:00N 44°24' E 029°08'3 6.8
2018-Feb-11 22:30N 44°27' E 029°10'3 6.7
2018-Feb-11 22:00N 44°30' E 029°12'3 6.5
2018-Feb-11 21:30N 44°33' E 029°15'3 6.6
2018-Feb-11 21:00N 44°36' E 029°17'  
2018-Feb-09 01:00N 45°16' E 036°28'7 7.3
2018-Feb-09 00:00N 45°20' E 036°37'3 6.0
2018-Feb-08 23:30N 45°23' E 036°40'7 0.8
2018-Feb-08 14:30N 45°30' E 036°41'  
Track history (hours):
 
Tides and Currents Weather Stations Pressure Air Temp Water Temp Dewpoint Dewpoint Depression Visibility Wind Speed Wind Dir Waves Ship Positions

Akhmat_kadyrov

Last reported at 2018-Feb-16 14:29 UTC. Time now 2018-Feb-24 02:40 UTC.
Position N 45°33' E 036°49'.

Length 139 m; draft 3 m.

Type: Cargo ship. MMSI: 273372000.

Date/timePositionNaut miles runAvg speedWind from/ knotsBaromVisibWave heightAir tempDewpointWater temp
2018-Feb-16 14:29N 45°33' E 036°49'3 7.1
2018-Feb-16 14:00N 45°30' E 036°45'3 6.9
2018-Feb-16 13:30N 45°27' E 036°43'4 7.2
2018-Feb-16 13:00N 45°24' E 036°41'3 6.4
2018-Feb-16 12:30N 45°21' E 036°39'3 6.6
2018-Feb-16 12:00N 45°20' E 036°35'4 7.0
2018-Feb-16 11:29N 45°18' E 036°30'3 6.6
2018-Feb-16 11:00N 45°15' E 036°28'2 4.8
2018-Feb-16 10:30N 45°13' E 036°29'2 4.0
2018-Feb-16 10:00N 45°11' E 036°31'0 0.3
2018-Feb-16 09:30N 45°11' E 036°31'0 0.0
2018-Feb-16 09:00N 45°11' E 036°31'0 0.0
2018-Feb-16 08:30N 45°11' E 036°31'0 0.0
2018-Feb-16 07:57N 45°11' E 036°31'0 0.0
2018-Feb-16 07:30N 45°11' E 036°31'0 0.0
2018-Feb-16 07:00N 45°11' E 036°31'0 0.0
2018-Feb-16 05:54N 45°11' E 036°31'0 0.0
2018-Feb-16 04:12N 45°11' E 036°31'0 0.0
2018-Feb-16 03:09N 45°11' E 036°31'0 0.0
2018-Feb-16 03:00N 45°11' E 036°31'0 0.0
2018-Feb-16 02:30N 45°11' E 036°31'0 0.1
2018-Feb-16 02:00N 45°11' E 036°31'0 0.0
2018-Feb-16 01:30N 45°11' E 036°31'0 0.0
2018-Feb-16 00:48N 45°11' E 036°31'0 0.0
2018-Feb-16 00:30N 45°11' E 036°31'0 0.1
2018-Feb-15 23:57N 45°11' E 036°31'1 2.5
2018-Feb-15 23:29N 45°10' E 036°31'3 7.2
2018-Feb-15 23:00N 45°07' E 036°30'  
2018-Feb-13 02:26N 44°38' E 029°21'3 6.9
2018-Feb-13 01:59N 44°36' E 029°17'3 6.8
2018-Feb-13 01:29N 44°33' E 029°15'3 6.7
2018-Feb-13 01:00N 44°30' E 029°13'4 7.2
2018-Feb-13 00:30N 44°27' E 029°11'4 7.3
2018-Feb-13 00:00N 44°24' E 029°08'4 7.2
2018-Feb-12 23:30N 44°21' E 029°06'3 7.0
2018-Feb-12 23:00N 44°18' E 029°03'3 6.9
2018-Feb-12 22:30N 44°15' E 029°01'4 7.0
2018-Feb-12 22:00N 44°12' E 028°59'4 7.1
2018-Feb-12 21:30N 44°08' E 028°57'3 7.0
2018-Feb-12 21:00N 44°05' E 028°54'3 7.0
2018-Feb-12 20:30N 44°02' E 028°52'3 6.8
2018-Feb-12 20:00N 43°59' E 028°50'3 5.3
2018-Feb-12 19:30N 44°00' E 028°46'4 8.3
2018-Feb-12 19:00N 44°04' E 028°43'4 7.2
2018-Feb-12 18:30N 44°07' E 028°41'2 4.4
2018-Feb-12 17:59N 44°08' E 028°39'0 0.0
2018-Feb-12 17:29N 44°08' E 028°39'0 0.0
2018-Feb-12 16:59N 44°08' E 028°39'0 0.0
2018-Feb-12 16:26N 44°08' E 028°39'0 0.0
2018-Feb-12 15:59N 44°08' E 028°39'0 0.0
2018-Feb-12 15:16N 44°09' E 028°39'0 0.0
2018-Feb-12 14:58N 44°08' E 028°39'0 0.0
2018-Feb-12 14:28N 44°08' E 028°39'0 0.0
2018-Feb-12 13:58N 44°08' E 028°39'0 0.0
2018-Feb-12 13:28N 44°08' E 028°39'0 0.0
2018-Feb-12 12:58N 44°08' E 028°39'0 0.0
2018-Feb-12 12:28N 44°08' E 028°39'0 0.0
2018-Feb-12 11:58N 44°08' E 028°39'0 0.0
2018-Feb-12 11:28N 44°08' E 028°39'0 0.0
2018-Feb-12 10:58N 44°08' E 028°39'0 0.0
2018-Feb-12 10:28N 44°08' E 028°39'0 0.0
2018-Feb-12 09:58N 44°08' E 028°39'0 0.0
2018-Feb-12 09:28N 44°08' E 028°39'0 0.0
2018-Feb-12 08:58N 44°08' E 028°39'0 0.0
2018-Feb-12 08:25N 44°08' E 028°39'0 0.0
2018-Feb-12 07:58N 44°08' E 028°39'0 0.0
2018-Feb-12 07:28N 44°08' E 028°39'0 0.0
2018-Feb-12 06:58N 44°08' E 028°39'0 0.0
2018-Feb-12 06:28N 44°08' E 028°39'0 0.0
2018-Feb-12 05:58N 44°08' E 028°39'0 0.0
2018-Feb-12 05:28N 44°08' E 028°39'0 0.0
2018-Feb-12 04:58N 44°08' E 028°39'1 1.4
2018-Feb-12 04:30N 44°09' E 028°40'3 6.0
2018-Feb-12 04:00N 44°06' E 028°42'2 4.0
2018-Feb-12 03:30N 44°05' E 028°45'2 4.1
2018-Feb-12 03:00N 44°05' E 028°47'3 5.0
2018-Feb-12 02:30N 44°05' E 028°51'3 5.2
2018-Feb-12 02:00N 44°06' E 028°54'3 6.8
2018-Feb-12 01:30N 44°09' E 028°57'3 6.7
2018-Feb-12 01:00N 44°12' E 028°59'3 6.8
2018-Feb-12 00:30N 44°15' E 029°01'3 6.9
2018-Feb-12 00:00N 44°18' E 029°03'3 6.9
2018-Feb-11 23:30N 44°21' E 029°06'3 6.9
2018-Feb-11 23:00N 44°24' E 029°08'3 6.8
2018-Feb-11 22:30N 44°27' E 029°10'3 6.7
2018-Feb-11 22:00N 44°30' E 029°12'3 6.5
2018-Feb-11 21:30N 44°33' E 029°15'3 6.6
2018-Feb-11 21:00N 44°36' E 029°17'  
2018-Feb-09 01:00N 45°16' E 036°28'7 7.3
2018-Feb-09 00:00N 45°20' E 036°37'3 6.0
2018-Feb-08 23:30N 45°23' E 036°40'7 0.8
2018-Feb-08 14:30N 45°30' E 036°41'  

Dump ship's entire track history